createdAt,value
2022-08-17T00:01:38.489Z,21.35
2022-08-17T00:04:20.976Z,21.25
2022-08-17T00:06:49.200Z,21.48
2022-08-17T00:09:18.798Z,20.85
2022-08-17T00:12:34.615Z,20.33
2022-08-17T00:14:35.111Z,20.73
2022-08-17T00:17:03.775Z,20.15
2022-08-17T00:19:32.479Z,20.40
2022-08-17T00:22:32.178Z,19.50
2022-08-17T00:24:47.644Z,20.90
2022-08-17T00:27:14.724Z,20.17
2022-08-17T00:29:42.184Z,20.23
2022-08-17T00:33:12.180Z,20.30
2022-08-17T00:34:56.291Z,19.55
2022-08-17T00:37:23.375Z,19.87
2022-08-17T00:39:50.518Z,20.73
2022-08-17T00:42:19.204Z,20.60
2022-08-17T00:44:46.347Z,19.45
2022-08-17T00:47:13.486Z,20.63
2022-08-17T00:49:40.781Z,19.33
2022-08-17T00:52:15.377Z,19.48
2022-08-17T00:54:44.194Z,20.20
2022-08-17T00:57:14.179Z,19.70
2022-08-17T00:59:44.774Z,18.92
2022-08-17T01:02:14.994Z,19.13
2022-08-17T01:04:44.048Z,20.55
2022-08-17T01:07:12.270Z,19.13
2022-08-17T01:09:39.887Z,20.15
2022-08-17T01:12:10.539Z,19.38
2022-08-17T01:14:37.691Z,18.20
2022-08-17T01:17:05.022Z,18.80
2022-08-17T01:19:34.255Z,18.33
2022-08-17T01:22:14.359Z,18.00
2022-08-17T01:24:43.310Z,17.88
2022-08-17T01:27:10.965Z,17.67
2022-08-17T01:29:39.258Z,18.25
2022-08-17T01:32:07.371Z,18.77
2022-08-17T01:34:42.974Z,19.05
2022-08-17T01:37:11.134Z,18.67
2022-08-17T01:39:42.072Z,18.53
2022-08-17T01:42:12.158Z,19.73
2022-08-17T01:44:41.124Z,20.90
2022-08-17T01:47:08.239Z,20.95
2022-08-17T01:49:35.316Z,21.92
2022-08-17T01:52:07.154Z,24.27
2022-08-17T01:54:34.736Z,24.52
2022-08-17T01:57:01.794Z,25.92
2022-08-17T01:59:28.867Z,25.52
2022-08-17T02:01:55.971Z,27.30
2022-08-17T02:04:23.158Z,27.80
2022-08-17T02:06:54.155Z,28.30
2022-08-17T02:09:26.291Z,27.08
2022-08-17T02:11:57.942Z,26.45
2022-08-17T02:14:25.703Z,27.75
2022-08-17T02:16:52.980Z,27.67
2022-08-17T02:19:20.229Z,28.80
2022-08-17T02:21:51.158Z,27.65
2022-08-17T02:25:00.784Z,25.67
2022-08-17T02:27:07.616Z,23.05
2022-08-17T02:29:34.709Z,23.60
2022-08-17T02:32:02.146Z,22.67
2022-08-17T02:34:29.946Z,23.95
2022-08-17T02:36:57.068Z,25.63
2022-08-17T02:39:24.232Z,25.65
2022-08-17T02:41:51.403Z,24.97
2022-08-17T02:44:38.976Z,24.60
2022-08-17T02:47:06.742Z,24.33
2022-08-17T02:49:33.886Z,22.98
2022-08-17T02:52:03.379Z,23.67
2022-08-17T02:54:40.152Z,24.27
2022-08-17T02:57:09.012Z,24.77
2022-08-17T02:59:36.073Z,24.92
2022-08-17T03:02:10.597Z,25.50
2022-08-17T03:04:37.850Z,26.48
2022-08-17T03:07:05.465Z,26.73
2022-08-17T03:09:32.724Z,27.23
2022-08-17T03:12:08.139Z,27.98
2022-08-17T03:14:41.260Z,26.90
2022-08-17T03:17:09.875Z,28.45
2022-08-17T03:19:37.763Z,28.37
2022-08-17T03:22:35.892Z,27.35
2022-08-17T03:24:58.054Z,23.30
2022-08-17T03:27:25.146Z,19.67
2022-08-17T03:29:52.227Z,18.88
2022-08-17T03:32:20.537Z,18.83
2022-08-17T03:34:47.693Z,19.65
2022-08-17T03:37:14.835Z,18.83
2022-08-17T03:39:42.714Z,20.15
2022-08-17T03:42:31.198Z,20.08
2022-08-17T03:44:58.940Z,19.87
2022-08-17T03:47:44.763Z,18.20
2022-08-17T03:50:30.835Z,17.80
2022-08-17T03:53:16.738Z,18.33
2022-08-17T03:56:02.637Z,18.17
2022-08-17T03:58:29.746Z,18.63
2022-08-17T04:00:56.825Z,19.42
2022-08-17T04:03:23.906Z,18.48
2022-08-17T04:05:50.966Z,19.75
2022-08-17T04:08:18.061Z,19.50
2022-08-17T04:10:45.476Z,20.80
2022-08-17T04:13:12.791Z,20.50
2022-08-17T04:15:39.899Z,19.83
2022-08-17T04:18:07.596Z,21.35
2022-08-17T04:20:37.947Z,21.95
2022-08-17T04:23:07.080Z,22.10
2022-08-17T04:25:36.334Z,21.90
2022-08-17T04:28:04.446Z,21.58
2022-08-17T04:30:35.740Z,22.02
2022-08-17T04:33:07.358Z,22.85
2022-08-17T04:35:45.523Z,22.67
2022-08-17T04:38:17.722Z,22.52
2022-08-17T04:41:03.603Z,22.52
2022-08-17T04:43:31.397Z,22.38
2022-08-17T04:46:00.333Z,22.77
2022-08-17T04:48:36.233Z,21.23
2022-08-17T04:51:04.862Z,21.95
2022-08-17T04:53:32.023Z,23.05
2022-08-17T04:55:59.165Z,22.67
2022-08-17T04:58:26.579Z,23.10
2022-08-17T05:00:53.869Z,22.33
2022-08-17T05:03:21.045Z,22.17
2022-08-17T05:05:49.479Z,21.40
2022-08-17T05:08:17.496Z,21.42
2022-08-17T05:10:45.537Z,20.00
2022-08-17T05:13:17.283Z,20.87
2022-08-17T05:15:47.896Z,21.23
2022-08-17T05:18:15.754Z,21.48
2022-08-17T05:20:43.396Z,21.38
2022-08-17T05:23:12.179Z,20.80
2022-08-17T05:25:41.015Z,21.57
2022-08-17T05:28:08.691Z,21.05
2022-08-17T05:30:37.061Z,20.63
2022-08-17T05:33:08.336Z,19.48
2022-08-17T05:35:37.802Z,18.40
2022-08-17T05:38:05.400Z,17.60
2022-08-17T05:40:32.818Z,16.63
2022-08-17T05:43:07.783Z,16.20
2022-08-17T05:45:46.114Z,14.68
2022-08-17T05:48:35.824Z,13.80
2022-08-17T05:51:06.924Z,12.87
2022-08-17T05:53:35.753Z,12.13
2022-08-17T05:56:29.654Z,11.45
2022-08-17T05:58:57.552Z,11.30
2022-08-17T06:01:34.244Z,11.23
2022-08-17T06:04:10.863Z,11.20
2022-08-17T06:06:41.338Z,10.77
2022-08-17T06:09:21.289Z,9.35
2022-08-17T06:12:03.551Z,10.00
2022-08-17T06:14:48.643Z,9.73
2022-08-17T06:17:19.083Z,10.17
2022-08-17T06:19:56.800Z,9.77
2022-08-17T06:22:27.230Z,8.70
2022-08-17T06:24:58.723Z,10.18
2022-08-17T06:27:36.051Z,9.43
2022-08-17T06:30:10.960Z,8.60
2022-08-17T06:32:39.127Z,8.73
2022-08-17T06:35:07.783Z,8.57
2022-08-17T06:37:43.918Z,8.23
2022-08-17T06:40:16.923Z,8.63
2022-08-17T06:42:54.713Z,8.50
2022-08-17T06:45:36.045Z,8.30
2022-08-17T06:48:24.334Z,7.80
2022-08-17T06:51:29.730Z,7.90
2022-08-17T06:54:13.034Z,8.40
2022-08-17T06:56:53.206Z,7.60
2022-08-17T06:59:25.199Z,7.68
2022-08-17T07:01:52.925Z,8.40
2022-08-17T07:04:22.209Z,8.18
2022-08-17T07:06:53.512Z,8.10
2022-08-17T07:09:36.529Z,8.20
2022-08-17T07:12:10.632Z,8.27
2022-08-17T07:14:37.684Z,8.82
2022-08-17T07:17:08.451Z,8.35
2022-08-17T07:19:36.647Z,8.35
2022-08-17T07:22:10.579Z,8.47
2022-08-17T07:24:45.064Z,8.32
2022-08-17T07:27:16.107Z,8.50
2022-08-17T07:29:57.985Z,8.70
2022-08-17T07:32:31.452Z,9.00
2022-08-17T07:35:01.328Z,9.10
2022-08-17T07:37:28.402Z,10.00
2022-08-17T07:40:13.164Z,9.43
2022-08-17T07:42:46.806Z,9.55
2022-08-17T07:45:34.459Z,9.77
2022-08-17T07:48:20.063Z,9.70
2022-08-17T07:50:49.409Z,9.98
2022-08-17T07:53:20.282Z,10.00
2022-08-17T07:55:47.666Z,10.45
2022-08-17T07:58:19.233Z,11.00
2022-08-17T08:00:46.949Z,11.00
2022-08-17T08:03:23.716Z,11.40
2022-08-17T08:05:55.886Z,13.82
2022-08-17T08:08:28.128Z,12.10
2022-08-17T08:11:04.436Z,12.23
2022-08-17T08:13:32.349Z,12.43
2022-08-17T08:16:19.740Z,12.98
2022-08-17T08:18:54.348Z,13.07
2022-08-17T08:21:41.995Z,12.55
2022-08-17T08:24:15.045Z,12.38
2022-08-17T08:26:46.328Z,13.63
2022-08-17T08:29:31.540Z,12.10
2022-08-17T08:31:58.673Z,11.77
2022-08-17T08:34:44.597Z,12.15
2022-08-17T08:37:56.841Z,11.73
2022-08-17T08:40:38.637Z,11.93
2022-08-17T08:43:08.288Z,12.23
2022-08-17T08:45:58.202Z,12.13
2022-08-17T08:48:55.832Z,12.73
2022-08-17T08:51:24.503Z,12.27
2022-08-17T08:53:54.397Z,11.30
2022-08-17T08:56:31.546Z,11.18
2022-08-17T08:58:59.310Z,10.55
2022-08-17T09:01:29.381Z,9.52
2022-08-17T09:04:17.005Z,10.45
2022-08-17T09:06:57.782Z,9.60
2022-08-17T09:09:40.097Z,10.75
2022-08-17T09:12:17.284Z,10.32
2022-08-17T09:14:47.469Z,10.10
2022-08-17T09:17:18.527Z,10.45
2022-08-17T09:19:49.356Z,10.57
2022-08-17T09:22:32.012Z,11.07
2022-08-17T09:25:00.789Z,11.00
2022-08-17T09:27:31.964Z,10.90
2022-08-17T09:30:07.743Z,11.25
2022-08-17T09:32:38.212Z,11.63
2022-08-17T09:35:10.379Z,11.60
2022-08-17T09:37:52.592Z,11.57
2022-08-17T09:40:31.307Z,11.55
2022-08-17T09:43:17.123Z,11.23
2022-08-17T09:45:50.584Z,10.50
2022-08-17T09:48:27.540Z,10.98
2022-08-17T09:51:06.471Z,11.63
2022-08-17T09:53:36.276Z,10.68
2022-08-17T09:56:09.621Z,11.10
2022-08-17T09:58:40.503Z,11.00
2022-08-17T10:01:31.210Z,12.23
2022-08-17T10:04:10.034Z,11.00
2022-08-17T10:07:03.525Z,9.95
2022-08-17T10:09:38.731Z,9.70
2022-08-17T10:12:29.988Z,9.87
2022-08-17T10:14:57.490Z,9.00
2022-08-17T10:17:28.590Z,9.05
2022-08-17T10:20:03.375Z,8.32
2022-08-17T10:22:55.087Z,8.05
2022-08-17T10:25:56.496Z,9.00
2022-08-17T10:28:30.007Z,8.45
2022-08-17T10:31:17.033Z,8.82
2022-08-17T10:34:06.464Z,8.38
2022-08-17T10:36:37.827Z,8.13
2022-08-17T10:39:08.422Z,8.27
2022-08-17T10:41:42.283Z,8.23
2022-08-17T10:44:38.932Z,8.50
2022-08-17T10:47:13.643Z,8.50
2022-08-17T10:49:47.387Z,8.23
2022-08-17T10:52:20.557Z,8.43
2022-08-17T10:54:49.011Z,8.27
2022-08-17T10:57:28.104Z,9.00
2022-08-17T10:59:56.291Z,8.88
2022-08-17T11:02:24.053Z,9.25
2022-08-17T11:05:02.965Z,9.13
2022-08-17T11:07:30.019Z,9.73
2022-08-17T11:09:58.215Z,8.80
2022-08-17T11:12:25.503Z,8.73
2022-08-17T11:15:02.099Z,9.20
2022-08-17T11:17:50.779Z,9.23
2022-08-17T11:20:41.207Z,9.90
2022-08-17T11:23:18.280Z,8.82
2022-08-17T11:25:56.039Z,8.98
2022-08-17T11:28:25.320Z,9.30
2022-08-17T11:31:00.113Z,9.33
2022-08-17T11:33:30.546Z,9.90
2022-08-17T11:36:17.956Z,9.27
2022-08-17T11:38:49.659Z,10.20
2022-08-17T11:41:27.397Z,10.75
2022-08-17T11:44:23.698Z,11.03
2022-08-17T11:47:12.268Z,11.55
2022-08-17T11:50:00.685Z,12.00
2022-08-17T11:52:36.792Z,11.32
2022-08-17T11:55:31.733Z,11.57
2022-08-17T11:58:00.114Z,11.80
2022-08-17T12:00:45.583Z,12.45
2022-08-17T12:03:24.843Z,12.85
2022-08-17T12:05:53.491Z,13.40
2022-08-17T12:08:21.666Z,13.80
2022-08-17T12:10:52.322Z,13.70
2022-08-17T12:13:19.941Z,15.55
2022-08-17T12:15:51.223Z,15.13
2022-08-17T12:18:21.456Z,15.20
2022-08-17T12:21:00.111Z,15.55
2022-08-17T12:23:36.570Z,15.20
2022-08-17T12:26:19.351Z,15.73
2022-08-17T12:28:48.147Z,16.35
2022-08-17T12:31:20.901Z,16.40
2022-08-17T12:33:51.567Z,16.48
2022-08-17T12:36:28.107Z,15.93
2022-08-17T12:38:59.491Z,16.27
2022-08-17T12:41:41.984Z,16.88
2022-08-17T12:44:12.274Z,17.00
2022-08-17T12:46:50.379Z,17.45
2022-08-17T12:49:23.223Z,17.77
2022-08-17T12:51:51.036Z,17.88
2022-08-17T12:54:26.564Z,19.38
2022-08-17T12:56:53.743Z,18.95
2022-08-17T12:59:29.986Z,19.42
2022-08-17T13:01:57.819Z,18.50
2022-08-17T13:04:26.549Z,19.20
2022-08-17T13:06:59.607Z,20.27
2022-08-17T13:09:35.917Z,19.52
2022-08-17T13:12:08.023Z,20.00
2022-08-17T13:14:35.337Z,20.23
2022-08-17T13:17:09.688Z,19.83
2022-08-17T13:19:47.811Z,20.50
2022-08-17T13:22:14.907Z,21.13
2022-08-17T13:24:52.883Z,21.33
2022-08-17T13:27:20.576Z,21.43
2022-08-17T13:29:53.014Z,21.52
2022-08-17T13:32:44.158Z,21.58
2022-08-17T13:35:32.447Z,20.73
2022-08-17T13:38:08.432Z,21.75
2022-08-17T13:40:41.671Z,20.97
2022-08-17T13:43:09.263Z,20.70
2022-08-17T13:45:50.374Z,21.15
2022-08-17T13:48:28.635Z,21.27
2022-08-17T13:50:55.708Z,21.67
2022-08-17T13:53:22.737Z,22.60
2022-08-17T13:55:55.159Z,22.27
2022-08-17T13:58:33.082Z,21.45
2022-08-17T14:01:20.162Z,21.15
2022-08-17T14:03:47.273Z,21.17
2022-08-17T14:06:52.425Z,21.53
2022-08-17T14:09:05.612Z,21.50
2022-08-17T14:11:33.007Z,23.10
2022-08-17T14:14:00.151Z,22.08
2022-08-17T14:16:27.219Z,21.83
2022-08-17T14:18:57.000Z,21.23
2022-08-17T14:21:24.494Z,20.27
2022-08-17T14:23:54.827Z,21.45
2022-08-17T14:26:23.350Z,20.23
2022-08-17T14:28:56.564Z,20.27
2022-08-17T14:31:24.144Z,19.53
2022-08-17T14:33:51.921Z,20.13
2022-08-17T14:36:19.060Z,20.73
2022-08-17T14:38:46.145Z,19.83
2022-08-17T14:41:13.234Z,20.33
2022-08-17T14:43:40.323Z,18.77
2022-08-17T14:46:07.434Z,19.33
2022-08-17T14:48:38.282Z,20.55
2022-08-17T14:51:05.531Z,19.88
2022-08-17T14:53:32.752Z,20.17
2022-08-17T14:56:01.464Z,20.27
2022-08-17T14:58:29.529Z,20.88
2022-08-17T15:00:57.883Z,20.90
2022-08-17T15:03:25.086Z,21.58
2022-08-17T15:05:52.253Z,20.70
2022-08-17T15:08:19.581Z,20.53
2022-08-17T15:10:51.911Z,20.52
2022-08-17T15:13:25.458Z,21.00
2022-08-17T15:15:52.781Z,22.27
2022-08-17T15:18:20.237Z,22.42
2022-08-17T15:20:49.074Z,21.23
2022-08-17T15:23:18.095Z,22.63
2022-08-17T15:25:45.903Z,22.77
2022-08-17T15:28:13.026Z,22.35
2022-08-17T15:30:44.684Z,21.77
2022-08-17T15:33:16.255Z,22.50
2022-08-17T15:35:44.050Z,22.95
2022-08-17T15:38:12.999Z,22.38
2022-08-17T15:40:42.180Z,22.17
2022-08-17T15:43:11.430Z,22.15
2022-08-17T15:45:38.917Z,23.23
2022-08-17T15:48:06.761Z,21.88
2022-08-17T15:50:33.847Z,20.92
2022-08-17T15:53:01.782Z,20.38
2022-08-17T15:55:30.122Z,22.23
2022-08-17T15:57:57.231Z,23.00
2022-08-17T16:00:24.620Z,22.20
2022-08-17T16:03:46.346Z,21.38
2022-08-17T16:05:40.702Z,21.92
2022-08-17T16:08:08.090Z,21.88
2022-08-17T16:10:35.998Z,21.83
2022-08-17T16:13:04.526Z,21.45
2022-08-17T16:15:31.888Z,22.33
2022-08-17T16:17:59.173Z,20.73
2022-08-17T16:20:26.362Z,21.48
2022-08-17T16:22:54.273Z,22.17
2022-08-17T16:25:23.532Z,21.92
2022-08-17T16:28:10.668Z,22.42
2022-08-17T16:30:38.208Z,22.45
2022-08-17T16:33:06.139Z,21.67
2022-08-17T16:35:33.276Z,21.13
2022-08-17T16:38:00.443Z,21.90
2022-08-17T16:40:28.903Z,20.85
2022-08-17T16:42:57.683Z,21.02
2022-08-17T16:45:26.980Z,19.75
2022-08-17T16:47:54.674Z,19.57
2022-08-17T16:50:22.970Z,20.40
2022-08-17T16:52:50.713Z,20.15
2022-08-17T16:55:20.235Z,20.10
2022-08-17T16:57:50.342Z,21.27
2022-08-17T17:00:19.414Z,20.63
2022-08-17T17:02:47.529Z,21.13
2022-08-17T17:05:33.783Z,20.92
2022-08-17T17:08:03.913Z,20.55
2022-08-17T17:10:39.451Z,19.88
2022-08-17T17:13:10.579Z,20.33
2022-08-17T17:15:47.815Z,20.27
2022-08-17T17:18:16.479Z,20.52
2022-08-17T17:20:48.025Z,19.73
2022-08-17T17:23:24.300Z,20.92
2022-08-17T17:25:54.592Z,20.47
2022-08-17T17:28:27.258Z,20.52
2022-08-17T17:31:04.249Z,20.40
2022-08-17T17:33:36.746Z,20.95
2022-08-17T17:36:22.654Z,20.73
2022-08-17T17:38:52.971Z,19.97
2022-08-17T17:41:28.951Z,20.48
2022-08-17T17:44:03.197Z,20.17
2022-08-17T17:46:33.230Z,20.27
2022-08-17T17:49:00.838Z,20.55
2022-08-17T17:52:06.625Z,19.33
2022-08-17T17:54:32.901Z,19.77
2022-08-17T17:57:02.910Z,20.67
2022-08-17T17:59:44.318Z,19.67
2022-08-17T18:02:34.531Z,20.55
2022-08-17T18:05:03.883Z,19.70
2022-08-17T18:07:35.146Z,20.73
2022-08-17T18:10:19.445Z,20.33
2022-08-17T18:13:07.866Z,19.10
2022-08-17T18:15:43.912Z,19.23
2022-08-17T18:18:17.171Z,20.50
2022-08-17T18:20:56.194Z,18.70
2022-08-17T18:23:28.066Z,19.40
2022-08-17T18:25:55.798Z,19.58
2022-08-17T18:28:25.245Z,19.92
2022-08-17T18:31:09.623Z,19.03
2022-08-17T18:33:37.514Z,18.90
2022-08-17T18:36:05.931Z,19.05
2022-08-17T18:38:34.397Z,19.60
2022-08-17T18:41:23.525Z,19.67
2022-08-17T18:44:02.275Z,17.93
2022-08-17T18:46:36.782Z,17.33
2022-08-17T18:49:07.635Z,18.25
2022-08-17T18:51:42.489Z,19.73
2022-08-17T18:54:15.143Z,18.38
2022-08-17T18:56:45.330Z,15.67
2022-08-17T18:59:23.075Z,17.20
2022-08-17T19:02:27.298Z,14.95
2022-08-17T19:05:08.611Z,15.15
2022-08-17T19:07:40.803Z,14.43
2022-08-17T19:10:10.863Z,13.70
2022-08-17T19:12:43.035Z,13.18
2022-08-17T19:15:11.691Z,13.95
2022-08-17T19:17:42.064Z,14.20
2022-08-17T19:20:38.607Z,14.85
2022-08-17T19:23:17.702Z,15.60
2022-08-17T19:25:52.713Z,16.23
2022-08-17T19:28:28.450Z,15.82
2022-08-17T19:30:57.596Z,14.85
2022-08-17T19:33:25.217Z,15.55
2022-08-17T19:35:55.292Z,15.40
2022-08-17T19:38:27.951Z,15.60
2022-08-17T19:41:15.277Z,17.25
2022-08-17T19:43:56.901Z,18.33
2022-08-17T19:46:26.949Z,20.15
2022-08-17T19:48:54.007Z,20.03
2022-08-17T19:51:33.615Z,18.92
2022-08-17T19:54:07.357Z,15.13
2022-08-17T19:56:55.524Z,13.85
2022-08-17T19:59:22.600Z,13.15
2022-08-17T20:01:52.346Z,11.60
2022-08-17T20:04:19.471Z,12.63
2022-08-17T20:06:52.775Z,14.13
2022-08-17T20:09:34.667Z,13.93
2022-08-17T20:12:05.250Z,14.93
2022-08-17T20:14:36.469Z,16.30
2022-08-17T20:17:04.104Z,17.50
2022-08-17T20:19:48.831Z,17.98
2022-08-17T20:22:25.767Z,17.60
2022-08-17T20:25:08.327Z,19.02
2022-08-17T20:27:36.746Z,20.20
2022-08-17T20:30:06.898Z,21.50
2022-08-17T20:32:35.982Z,21.65
2022-08-17T20:35:07.062Z,22.17
2022-08-17T20:37:35.499Z,22.33
2022-08-17T20:40:07.476Z,22.47
2022-08-17T20:42:34.622Z,22.70
2022-08-17T20:45:05.425Z,23.88
2022-08-17T20:47:34.549Z,23.95
2022-08-17T20:50:03.592Z,24.23
2022-08-17T20:52:36.675Z,23.43
2022-08-17T20:55:04.595Z,24.60
2022-08-17T20:57:31.817Z,24.40
2022-08-17T20:59:59.280Z,24.38
2022-08-17T21:02:27.315Z,24.83
2022-08-17T21:04:54.432Z,24.23
2022-08-17T21:07:43.469Z,23.48
2022-08-17T21:10:10.934Z,23.25
2022-08-17T21:12:50.099Z,23.50
2022-08-17T21:15:28.447Z,23.85
2022-08-17T21:18:13.578Z,22.70
2022-08-17T21:20:49.489Z,23.13
2022-08-17T21:23:25.739Z,24.45
2022-08-17T21:25:58.745Z,23.05
2022-08-17T21:28:33.947Z,23.50
2022-08-17T21:31:08.406Z,24.20
2022-08-17T21:33:38.441Z,24.55
2022-08-17T21:36:11.547Z,24.33
2022-08-17T21:38:43.950Z,23.38
2022-08-17T21:41:20.515Z,23.05
2022-08-17T21:43:49.714Z,22.10
2022-08-17T21:46:24.685Z,23.08
2022-08-17T21:48:54.542Z,22.33
2022-08-17T21:51:24.036Z,22.23
2022-08-17T21:53:52.445Z,22.50
2022-08-17T21:56:36.282Z,21.77
2022-08-17T21:59:03.433Z,22.13
2022-08-17T22:01:50.765Z,21.20
2022-08-17T22:04:24.962Z,20.90
2022-08-17T22:06:57.269Z,21.60
2022-08-17T22:09:45.389Z,20.33
2022-08-17T22:12:16.116Z,20.65
2022-08-17T22:14:53.026Z,20.25
2022-08-17T22:17:35.747Z,19.58
2022-08-17T22:20:02.808Z,19.55
2022-08-17T22:22:32.777Z,20.50
2022-08-17T22:25:07.671Z,19.27
2022-08-17T22:27:45.673Z,18.80
2022-08-17T22:30:19.556Z,18.77
2022-08-17T22:32:49.146Z,18.20
2022-08-17T22:35:25.907Z,17.83
2022-08-17T22:37:53.371Z,16.45
2022-08-17T22:40:28.911Z,17.58
2022-08-17T22:42:57.082Z,17.23
2022-08-17T22:45:25.436Z,17.50
2022-08-17T22:47:58.655Z,17.07
2022-08-17T22:50:27.701Z,16.98
2022-08-17T22:53:20.939Z,17.60
2022-08-17T22:56:14.503Z,17.55
2022-08-17T22:59:10.539Z,18.02
2022-08-17T23:01:38.994Z,17.03
2022-08-17T23:04:07.383Z,17.00
2022-08-17T23:06:35.693Z,17.38
2022-08-17T23:09:04.098Z,18.00
2022-08-17T23:11:43.021Z,17.60
2022-08-17T23:14:18.312Z,17.97
2022-08-17T23:16:45.402Z,18.52
2022-08-17T23:19:13.516Z,17.92
2022-08-17T23:21:40.690Z,18.30
2022-08-17T23:24:08.797Z,18.67
2022-08-17T23:26:38.098Z,17.93
2022-08-17T23:29:09.291Z,18.02
2022-08-17T23:31:37.186Z,17.40
2022-08-17T23:34:06.007Z,18.48
2022-08-17T23:36:36.213Z,19.13
2022-08-17T23:39:03.313Z,18.80
2022-08-17T23:41:33.375Z,19.40
2022-08-17T23:44:01.223Z,19.45
2022-08-17T23:46:28.399Z,20.08
2022-08-17T23:48:55.451Z,19.88
2022-08-17T23:51:24.558Z,18.90
2022-08-17T23:53:53.657Z,18.95
2022-08-17T23:56:25.850Z,18.52
2022-08-17T23:58:54.870Z,18.77
